Sebastian, FL (32958)

6:18 PM EDT on July 28, 2015 (GMT -0400)
OZWORLD - *Sebastian Highlands* - | | Change Station
CLOSE
Current Station
Personal Weather Station
Location: Sebastian, FL
Elevation: 23 ft
Nearby Weather Stations

Elev 23 ft 27.80 °N, 80.48 °W | Updated 9 seconds ago

Overcast
Overcast
79.6 °F
Feels Like 84 °F
N
0.0
Wind Variable Wind from WNW
Gusts 1.0 mph

Today
High -- | Low -- °F
--% Chance of Precip.
Yesterday
High -- | Low -- °F
Precip. -- in
6:42 AM 8:13 PM
Waxing Gibbous, 92% visible
Pressure 29.95 in
Visibility 10.0 miles
Clouds Scattered Clouds 2800 ft
Heat Index 84 °F
Dew Point 74 °F
Humidity 83%
Rainfall 0.00 in
Snow Depth Not available.
UV 3 out of 12
Pollen .60 out of 12
Air Quality Not available.
Flu Activity Not available.
METAR KVRB 282153Z COR 26007KT 10SM SCT028 28/21 A2995 RMK AO2 PK WND 26029/2054 WSHFT 2040 RAB2057E09 SLP141 P0002 T02830211

More Conditions Fewer Conditions

Pressure 29.95 in
Visibility 10.0 miles
Clouds Scattered Clouds 2800 ft
Heat Index 84 °F
Dew Point 74 °F
Humidity 83%
Rainfall 0.00 in
Snow Depth Not available.
UV 3 out of 12
Pollen .60 out of 12
Air Quality Not available.
Flu Activity Not available.
METAR KVRB 282153Z COR 26007KT 10SM SCT028 28/21 A2995 RMK AO2 PK WND 26029/2054 WSHFT 2040 RAB2057E09 SLP141 P0002 T02830211

More Conditions Fewer Conditions

Nowcast | as of 3:31 PM EDT on July 28, 2015

Through late afternoon scattered showers and a few storms will move quickly northeast across central Florida. Eventually the rainfall will cross the intracoastal and nearshore Atlantic waters of Volusia County and the space coast. Brief heavy rain along with wind gusts of 30 to 35 mph will be possible. A few storms will be possible through late afternoon...producing rain amounts of a quarter to half an inch along with occasional lightning. Additional details...including graphics are available online at: http://www.Srh.NOAA.Gov/mlb/blog.Php

×

10-Day Weather Forecast

×

Almanac

Astronomy

Jul. 28, 2015 Rise Set
Actual Time
Civil Twilight
Nautical Twilight
Astronomical Twilight
Moon
Length of Visible Light
Length of Day
Tomorrow will be .
, % of the Moon is Illuminated

Today's Extremes

State Highs State Lows

Community

WunderPhotos

Upload Photos

1,841,955 photos uploaded!

WunderBlogs® & News

Nearby

Air Quality

  Air Quality AQ Index Pollutant
Not available.

Snow Depth

Station Depth Elevation

Earthquake Activity

City Distance Mag. Time & Date
Minimum magnitude displayed is 2.5.

Coastal Water Temperatures

Place Temperature

Stations

Nearby Weather Stations

Station Location Temp. Windchill Dew Point Humidity Wind Precip. Elev Updated Type